Time;durP1;ratioP1;P1;durP2;ratioP2;P2;SDS_P1;SDS_P2;PMS_P1;PMS_P2;Temp;Humidity;BMP_temperature;BMP_pressure;BME280_temperature;BME280_humidity;BME280_pressure;Samples;Min_cycle;Max_cycle;Signal;HPM_P1;HPM_P2
2022/03/03 00:00:34;;;;;;;17.43;10.87;;;;;;;;;;5041693;28;20235;-82
2022/03/03 00:03:01;;;;;;;17.37;12.03;;;;;;;;;;5029732;28;20204;-83
2022/03/03 00:05:28;;;;;;;17.33;11.77;;;;;;;;;;5027872;28;20238;-83
2022/03/03 00:07:55;;;;;;;19.43;12.27;;;;;;;;;;5027296;28;20208;-83
2022/03/03 00:10:22;;;;;;;21.87;12.83;;;;;;;;;;5025702;28;20242;-83
2022/03/03 00:12:50;;;;;;;21.60;12.27;;;;;;;;;;5036574;28;20202;-83
2022/03/03 00:15:17;;;;;;;17.37;12.13;;;;;;;;;;5039898;28;20234;-84
2022/03/03 00:17:44;;;;;;;17.50;12.10;;;;;;;;;;5035720;28;20255;-82
2022/03/03 00:20:12;;;;;;;22.20;12.27;;;;;;;;;;5020444;28;20212;-83
2022/03/03 00:22:39;;;;;;;17.47;12.20;;;;;;;;;;5023199;28;20199;-83
2022/03/03 00:25:07;;;;;;;20.20;12.80;;;;;;;;;;5038896;28;20207;-83
2022/03/03 00:27:34;;;;;;;23.27;14.03;;;;;;;;;;5038862;28;20223;-83
2022/03/03 00:30:02;;;;;;;115.57;49.00;;;;;;;;;;5031531;28;20621;-83
2022/03/03 00:32:30;;;;;;;75.53;31.23;;;;;;;;;;5029140;28;20282;-83
2022/03/03 00:34:57;;;;;;;55.60;28.83;;;;;;;;;;5036600;28;20210;-83
2022/03/03 00:37:24;;;;;;;45.23;24.77;;;;;;;;;;5037524;28;20222;-83
2022/03/03 00:39:51;;;;;;;31.13;19.53;;;;;;;;;;5035458;28;20207;-83
2022/03/03 00:42:18;;;;;;;29.37;16.60;;;;;;;;;;5030419;28;20239;-83
2022/03/03 00:44:45;;;;;;;18.53;12.30;;;;;;;;;;5020045;28;20211;-83
2022/03/03 00:47:14;;;;;;;16.53;12.13;;;;;;;;;;5017853;28;20246;-84
2022/03/03 00:49:41;;;;;;;18.53;12.27;;;;;;;;;;5018248;28;20211;-83
2022/03/03 00:52:08;;;;;;;26.60;14.33;;;;;;;;;;5031409;28;20239;-83
2022/03/03 00:54:35;;;;;;;31.10;13.43;;;;;;;;;;5036939;28;20207;-82
2022/03/03 00:57:02;;;;;;;24.43;13.73;;;;;;;;;;5020115;28;20243;-83
2022/03/03 00:59:29;;;;;;;25.17;13.90;;;;;;;;;;5021730;28;20223;-82
2022/03/03 01:01:56;;;;;;;16.40;12.43;;;;;;;;;;5030008;28;20637;-83
2022/03/03 01:04:25;;;;;;;17.50;11.73;;;;;;;;;;5022521;28;20207;-83
2022/03/03 01:06:52;;;;;;;21.13;12.80;;;;;;;;;;5022469;28;20242;-83
2022/03/03 01:09:19;;;;;;;21.10;12.40;;;;;;;;;;5023326;28;20203;-83
2022/03/03 01:11:46;;;;;;;18.90;12.10;;;;;;;;;;5041857;28;20242;-83
2022/03/03 01:14:13;;;;;;;19.13;11.93;;;;;;;;;;5040905;28;20210;-83
2022/03/03 01:16:40;;;;;;;16.17;11.63;;;;;;;;;;5021852;28;20246;-82
2022/03/03 01:19:07;;;;;;;21.53;12.53;;;;;;;;;;5025254;28;20229;-83
2022/03/03 01:21:36;;;;;;;18.67;12.53;;;;;;;;;;5022174;28;20235;-83
2022/03/03 01:24:03;;;;;;;21.03;12.63;;;;;;;;;;5023782;28;20249;-83
2022/03/03 01:26:30;;;;;;;22.07;13.20;;;;;;;;;;5040090;28;20247;-83
2022/03/03 01:28:57;;;;;;;23.17;13.30;;;;;;;;;;5021542;28;20218;-83
2022/03/03 01:31:24;;;;;;;19.47;12.37;;;;;;;;;;5029859;28;20227;-84
2022/03/03 01:33:51;;;;;;;20.63;12.90;;;;;;;;;;5041352;28;20202;-83
2022/03/03 01:36:18;;;;;;;17.90;11.67;;;;;;;;;;5025801;28;20243;-84
2022/03/03 01:38:46;;;;;;;19.57;12.47;;;;;;;;;;5021399;28;20274;-83
2022/03/03 01:41:14;;;;;;;17.63;12.33;;;;;;;;;;5038388;28;20863;-83
2022/03/03 01:43:41;;;;;;;20.37;13.50;;;;;;;;;;5040841;28;20210;-83
2022/03/03 01:46:08;;;;;;;24.07;14.67;;;;;;;;;;5024007;28;20246;-83
2022/03/03 01:48:35;;;;;;;23.13;14.80;;;;;;;;;;5040520;28;20221;-83
2022/03/03 01:51:02;;;;;;;24.87;15.10;;;;;;;;;;5040716;28;20245;-83
2022/03/03 01:53:29;;;;;;;25.70;14.77;;;;;;;;;;5041112;28;20211;-83
2022/03/03 01:55:57;;;;;;;23.60;13.80;;;;;;;;;;5029460;28;20247;-83
2022/03/03 01:58:24;;;;;;;23.30;12.57;;;;;;;;;;5020105;28;20395;-82
2022/03/03 02:00:52;;;;;;;24.50;13.00;;;;;;;;;;5031618;28;20238;-83
2022/03/03 02:03:19;;;;;;;24.03;11.87;;;;;;;;;;5040629;28;20934;-83
2022/03/03 02:05:46;;;;;;;19.30;13.50;;;;;;;;;;5024458;28;20239;-83
2022/03/03 02:08:14;;;;;;;21.07;13.73;;;;;;;;;;5019218;28;20203;-83
2022/03/03 02:10:41;;;;;;;16.93;11.87;;;;;;;;;;5018867;28;20290;-83
2022/03/03 02:13:09;;;;;;;21.87;12.97;;;;;;;;;;5018635;28;20217;-83
2022/03/03 02:15:37;;;;;;;15.87;11.73;;;;;;;;;;5018804;28;20469;-83
2022/03/03 02:18:04;;;;;;;21.60;12.70;;;;;;;;;;5034959;28;20566;-83
2022/03/03 02:20:36;;;;;;;18.63;13.30;;;;;;;;;;5038764;28;20230;-83
2022/03/03 02:23:04;;;;;;;21.00;13.40;;;;;;;;;;5031189;28;20203;-83
2022/03/03 02:25:31;;;;;;;23.07;14.27;;;;;;;;;;5019612;28;20239;-83
2022/03/03 02:27:58;;;;;;;19.80;12.80;;;;;;;;;;5034904;28;20203;-83
2022/03/03 02:30:26;;;;;;;20.93;11.50;;;;;;;;;;5038229;28;20587;-83
2022/03/03 02:32:53;;;;;;;20.50;12.67;;;;;;;;;;5040104;28;20637;-83
2022/03/03 02:35:20;;;;;;;21.57;11.93;;;;;;;;;;5021264;28;20235;-84
2022/03/03 02:37:48;;;;;;;17.57;12.37;;;;;;;;;;5023686;28;20238;-85
2022/03/03 02:40:20;;;;;;;17.00;12.17;;;;;;;;;;5026613;28;20239;-83
2022/03/03 02:42:47;;;;;;;18.60;11.57;;;;;;;;;;5023110;28;20275;-83
2022/03/03 02:45:14;;;;;;;17.40;11.47;;;;;;;;;;5037471;28;20203;-82
2022/03/03 02:47:41;;;;;;;19.70;11.70;;;;;;;;;;5041595;28;20215;-83
2022/03/03 02:50:09;;;;;;;20.83;12.07;;;;;;;;;;5039064;28;20286;-83
2022/03/03 02:52:36;;;;;;;18.10;12.13;;;;;;;;;;5021607;28;20211;-83
2022/03/03 02:55:03;;;;;;;16.30;11.23;;;;;;;;;;5024362;28;20203;-83
2022/03/03 03:00:18;;;;;;;20.07;11.73;;;;;;;;;;5029194;28;20238;-83
2022/03/03 03:02:45;;;;;;;15.77;11.83;;;;;;;;;;5020105;28;20215;-83
2022/03/03 03:05:12;;;;;;;18.70;11.73;;;;;;;;;;5023941;28;20215;-83
2022/03/03 03:07:39;;;;;;;16.57;11.47;;;;;;;;;;5020064;28;20719;-83
2022/03/03 03:10:07;;;;;;;20.23;12.93;;;;;;;;;;5019737;28;20242;-83
2022/03/03 03:12:35;;;;;;;21.33;11.27;;;;;;;;;;5019781;28;20214;-83
2022/03/03 03:15:02;;;;;;;19.30;12.57;;;;;;;;;;5022168;28;20199;-83
2022/03/03 03:17:29;;;;;;;16.50;12.27;;;;;;;;;;5034486;28;20234;-83
2022/03/03 03:19:56;;;;;;;18.67;12.30;;;;;;;;;;5030097;28;20222;-83
2022/03/03 03:22:23;;;;;;;18.10;12.37;;;;;;;;;;5031503;28;20217;-84
2022/03/03 03:24:50;;;;;;;15.87;11.00;;;;;;;;;;5033046;28;20685;-83
2022/03/03 03:27:17;;;;;;;21.57;12.27;;;;;;;;;;5033701;28;20230;-83
2022/03/03 03:29:46;;;;;;;21.00;12.07;;;;;;;;;;5033861;28;20221;-83
2022/03/03 03:32:13;;;;;;;19.60;11.67;;;;;;;;;;5013708;28;20239;-83
2022/03/03 03:34:40;;;;;;;17.53;11.20;;;;;;;;;;5014106;28;20209;-83
2022/03/03 03:37:07;;;;;;;17.97;11.93;;;;;;;;;;5013891;28;20247;-83
2022/03/03 03:39:34;;;;;;;16.07;12.23;;;;;;;;;;5021276;28;20225;-83
2022/03/03 03:42:01;;;;;;;19.17;11.73;;;;;;;;;;5033623;28;20238;-83
2022/03/03 03:44:28;;;;;;;19.43;12.53;;;;;;;;;;5033568;28;20545;-83
2022/03/03 03:46:56;;;;;;;16.87;11.53;;;;;;;;;;5033836;28;20713;-83
2022/03/03 03:49:24;;;;;;;17.87;12.03;;;;;;;;;;5025995;28;20203;-83
2022/03/03 03:51:51;;;;;;;20.23;12.63;;;;;;;;;;5013979;28;20266;-82
2022/03/03 03:54:18;;;;;;;16.50;11.53;;;;;;;;;;5014738;28;20207;-83
2022/03/03 03:56:45;;;;;;;16.10;11.47;;;;;;;;;;5014415;28;20596;-83
2022/03/03 03:59:13;;;;;;;20.40;12.60;;;;;;;;;;5029163;28;20785;-83
2022/03/03 04:01:40;;;;;;;15.37;11.80;;;;;;;;;;5013812;28;20285;-83
2022/03/03 04:04:09;;;;;;;18.93;11.97;;;;;;;;;;5033582;28;20206;-86
2022/03/03 04:06:37;;;;;;;18.63;11.77;;;;;;;;;;5033785;28;20245;-81
2022/03/03 04:09:04;;;;;;;18.20;12.03;;;;;;;;;;5035132;28;20666;-81
2022/03/03 04:11:31;;;;;;;17.87;11.20;;;;;;;;;;5034420;28;20238;-82
2022/03/03 04:13:58;;;;;;;17.63;12.53;;;;;;;;;;5034356;28;20883;-83
2022/03/03 04:16:25;;;;;;;17.07;11.47;;;;;;;;;;5034417;28;20241;-81
2022/03/03 04:18:52;;;;;;;21.63;12.50;;;;;;;;;;5035102;28;20227;-81
2022/03/03 04:21:20;;;;;;;17.07;12.23;;;;;;;;;;5034651;28;20709;-81
2022/03/03 04:23:48;;;;;;;18.97;12.80;;;;;;;;;;5026812;28;20685;-82
2022/03/03 04:26:15;;;;;;;18.43;11.90;;;;;;;;;;5028077;28;20227;-81
2022/03/03 04:28:42;;;;;;;21.87;12.50;;;;;;;;;;5027244;28;20194;-82
2022/03/03 04:31:10;;;;;;;16.80;11.23;;;;;;;;;;5019028;28;20235;-82
2022/03/03 04:33:38;;;;;;;18.43;12.23;;;;;;;;;;5019285;28;20293;-82
2022/03/03 04:36:05;;;;;;;18.03;11.93;;;;;;;;;;5019673;28;20241;-82
2022/03/03 04:38:34;;;;;;;22.93;14.10;;;;;;;;;;5020551;28;20211;-82
2022/03/03 04:41:01;;;;;;;18.60;12.83;;;;;;;;;;5019341;28;20242;-82
2022/03/03 04:43:28;;;;;;;16.33;12.20;;;;;;;;;;5020626;28;20216;-82
2022/03/03 04:45:55;;;;;;;21.37;13.60;;;;;;;;;;5023511;28;20243;-83
2022/03/03 04:48:29;;;;;;;22.73;13.90;;;;;;;;;;5024698;28;20203;-82
2022/03/03 04:50:56;;;;;;;22.63;13.70;;;;;;;;;;5032995;28;20321;-82
2022/03/03 04:53:23;;;;;;;20.47;14.90;;;;;;;;;;5034141;28;20226;-81
2022/03/03 04:55:51;;;;;;;21.83;13.67;;;;;;;;;;5033457;28;20710;-82
2022/03/03 04:58:18;;;;;;;16.47;11.87;;;;;;;;;;5034707;28;20210;-82
2022/03/03 05:00:46;;;;;;;22.03;13.63;;;;;;;;;;5034513;28;20445;-82
2022/03/03 05:03:13;;;;;;;20.70;14.67;;;;;;;;;;5033631;28;20236;-80
2022/03/03 05:05:40;;;;;;;19.40;14.50;;;;;;;;;;5029933;28;20242;-80
2022/03/03 05:08:07;;;;;;;19.67;12.93;;;;;;;;;;5030222;28;20221;-81
2022/03/03 05:10:34;;;;;;;25.03;15.07;;;;;;;;;;5043372;28;20226;-81
2022/03/03 05:13:03;;;;;;;25.23;15.17;;;;;;;;;;5045659;28;20198;-80
2022/03/03 05:15:30;;;;;;;23.47;14.63;;;;;;;;;;5045030;28;20241;-81
2022/03/03 05:17:58;;;;;;;21.50;12.30;;;;;;;;;;5037991;28;20199;-81
2022/03/03 05:20:25;;;;;;;19.43;12.33;;;;;;;;;;5046362;28;20343;-80
2022/03/03 05:22:52;;;;;;;21.47;12.67;;;;;;;;;;5047385;28;20217;-80
2022/03/03 05:25:19;;;;;;;18.03;13.23;;;;;;;;;;5046880;28;20244;-81
2022/03/03 05:27:46;;;;;;;16.33;12.10;;;;;;;;;;5045458;28;20260;-81
2022/03/03 05:30:15;;;;;;;18.87;12.20;;;;;;;;;;5043437;28;20244;-81
2022/03/03 05:32:42;;;;;;;16.47;12.20;;;;;;;;;;5044352;28;20220;-81
2022/03/03 05:35:09;;;;;;;26.87;12.43;;;;;;;;;;5043736;28;20203;-81
2022/03/03 05:37:37;;;;;;;20.90;13.50;;;;;;;;;;5044720;28;20599;-81
2022/03/03 05:40:05;;;;;;;22.17;13.80;;;;;;;;;;5043222;28;20226;-81
2022/03/03 05:42:32;;;;;;;20.13;12.63;;;;;;;;;;5042867;28;20206;-81
2022/03/03 05:44:59;;;;;;;20.37;12.00;;;;;;;;;;5044093;28;20195;-82
2022/03/03 05:47:29;;;;;;;19.67;13.13;;;;;;;;;;5043431;28;20321;-81
2022/03/03 05:49:57;;;;;;;20.27;13.37;;;;;;;;;;5042785;28;20201;-81
2022/03/03 05:52:24;;;;;;;20.13;12.53;;;;;;;;;;5043673;28;20197;-83
2022/03/03 05:54:52;;;;;;;22.47;12.27;;;;;;;;;;5044310;28;20202;-81
2022/03/03 05:57:20;;;;;;;23.43;13.20;;;;;;;;;;5044036;28;20217;-81
2022/03/03 05:59:48;;;;;;;20.63;11.93;;;;;;;;;;5041354;28;20599;-83
2022/03/03 06:02:15;;;;;;;24.87;15.10;;;;;;;;;;5040537;28;20237;-82
2022/03/03 06:04:44;;;;;;;26.13;14.60;;;;;;;;;;5040011;28;20209;-82
2022/03/03 06:07:12;;;;;;;24.73;14.20;;;;;;;;;;5041900;28;20244;-83
2022/03/03 06:09:39;;;;;;;24.40;13.80;;;;;;;;;;5041106;28;20212;-80
2022/03/03 06:12:07;;;;;;;24.83;14.53;;;;;;;;;;5040002;28;20244;-83
2022/03/03 06:14:38;;;;;;;24.87;16.10;;;;;;;;;;5040040;28;20209;-85
2022/03/03 06:17:06;;;;;;;31.33;14.93;;;;;;;;;;5041213;28;20670;-83
2022/03/03 06:19:39;;;;;;;35.80;17.70;;;;;;;;;;5041030;28;20237;-82
2022/03/03 06:22:07;;;;;;;30.27;17.57;;;;;;;;;;5040896;28;20232;-82
2022/03/03 06:24:35;;;;;;;37.17;19.90;;;;;;;;;;5041884;28;20221;-83
2022/03/03 06:27:02;;;;;;;23.70;15.33;;;;;;;;;;5039634;28;20263;-83
2022/03/03 06:29:29;;;;;;;25.80;14.67;;;;;;;;;;5039009;28;20213;-83
2022/03/03 06:31:56;;;;;;;25.67;15.20;;;;;;;;;;5039200;28;20230;-83
2022/03/03 06:34:23;;;;;;;22.47;14.83;;;;;;;;;;5040217;28;20198;-82
2022/03/03 06:36:50;;;;;;;26.87;15.37;;;;;;;;;;5039397;28;20639;-83
2022/03/03 06:39:19;;;;;;;27.40;16.47;;;;;;;;;;5040381;28;20281;-83
2022/03/03 06:41:46;;;;;;;23.70;14.27;;;;;;;;;;5040237;28;20260;-82
2022/03/03 06:44:13;;;;;;;21.70;14.67;;;;;;;;;;5040828;28;20225;-83
2022/03/03 06:46:40;;;;;;;23.50;15.23;;;;;;;;;;5042347;28;20240;-83
2022/03/03 06:49:07;;;;;;;25.17;15.67;;;;;;;;;;5040683;28;20220;-83
2022/03/03 06:51:37;;;;;;;22.67;15.17;;;;;;;;;;5041002;28;20237;-82
2022/03/03 06:54:04;;;;;;;27.27;16.27;;;;;;;;;;5040974;28;20207;-82
2022/03/03 06:56:32;;;;;;;25.27;15.10;;;;;;;;;;5039721;28;20235;-83
2022/03/03 06:59:01;;;;;;;21.50;15.17;;;;;;;;;;5041766;28;20221;-84
2022/03/03 07:01:29;;;;;;;22.17;15.57;;;;;;;;;;5038287;28;20238;-84
2022/03/03 07:03:57;;;;;;;24.67;15.33;;;;;;;;;;5039896;28;20194;-82
2022/03/03 07:06:24;;;;;;;30.00;16.30;;;;;;;;;;5039253;28;20244;-84
2022/03/03 07:08:55;;;;;;;25.97;17.27;;;;;;;;;;5039979;28;20202;-83
2022/03/03 07:11:23;;;;;;;28.00;17.87;;;;;;;;;;5044045;28;20234;-84
2022/03/03 07:13:51;;;;;;;25.20;16.57;;;;;;;;;;5041086;28;20214;-83
2022/03/03 07:16:23;;;;;;;33.70;18.70;;;;;;;;;;5038998;28;20241;-83
2022/03/03 07:18:51;;;;;;;29.07;17.70;;;;;;;;;;5041912;28;20201;-83
2022/03/03 07:21:25;;;;;;;29.70;17.13;;;;;;;;;;5040386;28;20249;-83
2022/03/03 07:23:55;;;;;;;28.67;16.93;;;;;;;;;;5024628;28;20249;-82
2022/03/03 07:26:22;;;;;;;26.90;16.77;;;;;;;;;;5019569;28;20297;-83
2022/03/03 07:28:52;;;;;;;29.70;17.53;;;;;;;;;;5018912;28;20203;-82
2022/03/03 07:31:20;;;;;;;29.63;17.70;;;;;;;;;;5019173;28;20292;-82
2022/03/03 07:33:50;;;;;;;34.00;18.10;;;;;;;;;;5020201;28;20207;-84
2022/03/03 07:36:21;;;;;;;28.47;17.50;;;;;;;;;;5036266;28;20245;-84
2022/03/03 07:38:53;;;;;;;27.43;18.03;;;;;;;;;;5039119;28;20661;-84
2022/03/03 07:41:21;;;;;;;26.33;17.33;;;;;;;;;;5035315;28;20234;-81
2022/03/03 07:43:48;;;;;;;28.80;17.40;;;;;;;;;;5041412;28;20614;-81
2022/03/03 07:46:17;;;;;;;24.80;16.67;;;;;;;;;;5041199;28;20231;-81
2022/03/03 07:48:46;;;;;;;25.13;16.63;;;;;;;;;;5041471;28;20217;-82
2022/03/03 07:51:13;;;;;;;28.23;17.73;;;;;;;;;;5041383;28;20262;-82
2022/03/03 07:53:41;;;;;;;23.47;15.40;;;;;;;;;;5041909;28;20751;-82
2022/03/03 07:56:10;;;;;;;31.33;15.43;;;;;;;;;;5041651;28;20242;-82
2022/03/03 07:58:40;;;;;;;29.57;16.93;;;;;;;;;;5043669;28;20191;-82
2022/03/03 08:01:10;;;;;;;23.10;15.80;;;;;;;;;;5042843;28;20238;-82
2022/03/03 08:03:38;;;;;;;25.50;17.20;;;;;;;;;;5039879;28;20207;-82
2022/03/03 08:06:06;;;;;;;27.23;16.53;;;;;;;;;;5036958;28;20613;-82
2022/03/03 08:08:33;;;;;;;24.27;17.03;;;;;;;;;;5036898;28;20557;-82
2022/03/03 08:11:03;;;;;;;27.33;16.37;;;;;;;;;;5037601;28;20242;-83
2022/03/03 08:13:30;;;;;;;26.67;17.67;;;;;;;;;;5036855;28;20203;-82
2022/03/03 08:15:58;;;;;;;23.17;16.27;;;;;;;;;;5038085;28;20242;-83
2022/03/03 08:18:27;;;;;;;25.73;17.20;;;;;;;;;;5040696;28;20214;-81
2022/03/03 08:20:57;;;;;;;25.47;17.03;;;;;;;;;;5040086;28;20242;-82
2022/03/03 08:23:26;;;;;;;26.40;18.33;;;;;;;;;;5040349;28;20257;-82
2022/03/03 08:25:53;;;;;;;28.60;17.20;;;;;;;;;;5038026;28;20666;-82
2022/03/03 08:28:23;;;;;;;30.83;17.87;;;;;;;;;;5037062;28;20199;-84
2022/03/03 08:30:50;;;;;;;27.03;16.40;;;;;;;;;;5038029;28;20238;-83
2022/03/03 08:33:20;;;;;;;25.60;16.87;;;;;;;;;;5038871;28;20202;-83
2022/03/03 08:35:52;;;;;;;25.97;17.97;;;;;;;;;;5043237;28;20239;-83
2022/03/03 08:38:25;;;;;;;25.53;17.33;;;;;;;;;;5033437;28;20198;-83
2022/03/03 08:40:53;;;;;;;27.23;18.03;;;;;;;;;;5014965;28;20239;-83
2022/03/03 08:43:21;;;;;;;29.80;17.40;;;;;;;;;;5032972;28;20212;-82
2022/03/03 08:45:49;;;;;;;26.50;18.20;;;;;;;;;;5032386;28;20650;-84
2022/03/03 08:48:16;;;;;;;32.87;17.17;;;;;;;;;;5033656;28;20683;-83
2022/03/03 08:50:44;;;;;;;24.87;17.07;;;;;;;;;;5032676;28;20239;-83
2022/03/03 08:53:12;;;;;;;24.93;16.70;;;;;;;;;;5033553;28;20678;-84
2022/03/03 08:55:40;;;;;;;27.33;17.03;;;;;;;;;;5034388;28;20228;-83
2022/03/03 08:58:08;;;;;;;28.00;17.67;;;;;;;;;;5038076;28;20222;-83
2022/03/03 09:00:36;;;;;;;28.30;16.10;;;;;;;;;;5037430;28;20246;-83
2022/03/03 09:03:04;;;;;;;21.70;14.73;;;;;;;;;;5038109;28;20234;-83
2022/03/03 09:05:31;;;;;;;21.77;15.43;;;;;;;;;;5037262;28;20511;-83
2022/03/03 09:07:58;;;;;;;21.57;15.40;;;;;;;;;;5037084;28;20235;-83
2022/03/03 09:10:25;;;;;;;23.70;16.80;;;;;;;;;;5036690;28;20241;-83
2022/03/03 09:12:54;;;;;;;24.17;15.30;;;;;;;;;;5036288;28;20721;-83
2022/03/03 09:15:22;;;;;;;25.93;14.30;;;;;;;;;;5036246;28;20281;-84
2022/03/03 09:17:49;;;;;;;18.57;13.60;;;;;;;;;;5037529;28;20232;-83
2022/03/03 09:20:16;;;;;;;25.67;14.30;;;;;;;;;;5040711;28;20256;-83
2022/03/03 09:22:43;;;;;;;18.13;12.40;;;;;;;;;;5040419;28;20213;-82
2022/03/03 09:25:10;;;;;;;20.13;13.33;;;;;;;;;;5039806;28;20217;-84
2022/03/03 09:27:38;;;;;;;22.07;14.40;;;;;;;;;;5039597;28;20541;-83
2022/03/03 09:30:07;;;;;;;17.30;12.77;;;;;;;;;;5039660;28;20210;-83
2022/03/03 09:32:34;;;;;;;22.33;13.10;;;;;;;;;;5043254;28;20216;-83
2022/03/03 09:35:01;;;;;;;19.57;12.67;;;;;;;;;;5049613;28;20206;-83
2022/03/03 09:37:28;;;;;;;21.53;14.07;;;;;;;;;;5054035;28;20233;-84
2022/03/03 09:39:55;;;;;;;18.93;12.53;;;;;;;;;;5054249;28;20215;-84
2022/03/03 09:42:23;;;;;;;17.47;11.33;;;;;;;;;;5054800;28;20198;-84
2022/03/03 09:44:50;;;;;;;14.20;11.03;;;;;;;;;;5056110;28;20211;-84
2022/03/03 09:47:18;;;;;;;19.73;11.87;;;;;;;;;;5052099;28;20231;-84
2022/03/03 09:49:45;;;;;;;16.70;11.40;;;;;;;;;;5048525;28;20210;-83
2022/03/03 09:52:13;;;;;;;15.30;11.13;;;;;;;;;;5048561;28;20234;-84
2022/03/03 09:54:41;;;;;;;14.63;10.60;;;;;;;;;;5050312;28;20221;-82
2022/03/03 09:57:08;;;;;;;13.90;10.33;;;;;;;;;;5048799;28;20238;-82
2022/03/03 09:59:35;;;;;;;14.63;9.83;;;;;;;;;;5048136;28;20206;-83
2022/03/03 10:02:03;;;;;;;12.67;9.37;;;;;;;;;;5047657;28;20226;-83
2022/03/03 10:04:31;;;;;;;13.20;9.90;;;;;;;;;;5048575;28;20210;-83
2022/03/03 10:07:03;;;;;;;14.47;9.90;;;;;;;;;;5066103;23;20453;-86
2022/03/03 10:09:30;;;;;;;11.87;9.10;;;;;;;;;;5035266;28;20202;-86
2022/03/03 10:12:01;;;;;;;12.67;9.23;;;;;;;;;;5034117;28;20237;-86
2022/03/03 10:14:29;;;;;;;13.43;8.90;;;;;;;;;;5034280;28;20203;-85
2022/03/03 10:16:56;;;;;;;12.20;9.00;;;;;;;;;;5034905;28;20244;-87
2022/03/03 10:19:23;;;;;;;14.97;9.83;;;;;;;;;;5035092;28;20705;-86
2022/03/03 10:21:52;;;;;;;11.67;9.30;;;;;;;;;;5034816;28;20239;-86
2022/03/03 10:24:21;;;;;;;15.50;9.63;;;;;;;;;;5034688;28;20772;-86
2022/03/03 10:26:56;;;;;;;14.03;9.17;;;;;;;;;;5033737;28;20246;-86
2022/03/03 10:29:23;;;;;;;14.27;9.43;;;;;;;;;;5034635;28;20642;-86
2022/03/03 10:31:52;;;;;;;14.07;9.70;;;;;;;;;;5035715;28;20706;-87
2022/03/03 10:34:20;;;;;;;11.43;9.50;;;;;;;;;;5034252;28;20198;-87
2022/03/03 10:36:57;;;;;;;15.07;10.37;;;;;;;;;;5034258;28;20633;-87
2022/03/03 10:39:24;;;;;;;13.67;9.63;;;;;;;;;;5035065;28;20190;-87
2022/03/03 10:41:56;;;;;;;19.80;9.50;;;;;;;;;;5034162;28;20230;-87
2022/03/03 10:44:24;;;;;;;14.33;9.80;;;;;;;;;;5036215;28;20198;-87
2022/03/03 10:47:01;;;;;;;11.67;9.13;;;;;;;;;;5043158;28;20721;-87
2022/03/03 10:49:29;;;;;;;11.27;8.83;;;;;;;;;;5036906;28;20217;-87
2022/03/03 10:52:09;;;;;;;15.73;9.17;;;;;;;;;;5026324;28;20238;-87
2022/03/03 10:54:48;;;;;;;12.47;9.07;;;;;;;;;;5037587;28;20193;-87
2022/03/03 10:57:29;;;;;;;13.73;9.60;;;;;;;;;;5035561;28;20249;-86
2022/03/03 10:59:59;;;;;;;13.07;9.43;;;;;;;;;;5034716;28;20187;-86
2022/03/03 11:02:27;;;;;;;14.30;9.63;;;;;;;;;;5034219;28;20261;-86
2022/03/03 11:04:55;;;;;;;12.33;9.63;;;;;;;;;;5033939;28;20285;-87
2022/03/03 11:07:24;;;;;;;14.57;9.37;;;;;;;;;;5034855;28;20770;-87
2022/03/03 11:09:51;;;;;;;15.97;9.33;;;;;;;;;;5033630;28;20222;-87
2022/03/03 11:12:19;;;;;;;14.50;9.37;;;;;;;;;;5033528;28;20658;-85
2022/03/03 11:14:46;;;;;;;13.80;8.93;;;;;;;;;;5033479;28;20203;-87
2022/03/03 11:17:13;;;;;;;13.30;10.27;;;;;;;;;;5024559;28;20243;-87
2022/03/03 11:19:41;;;;;;;11.67;8.93;;;;;;;;;;5034097;28;20203;-86
2022/03/03 11:22:08;;;;;;;12.53;8.93;;;;;;;;;;5032698;28;20242;-87
2022/03/03 11:24:38;;;;;;;13.23;9.53;;;;;;;;;;5033510;28;20211;-87
2022/03/03 11:27:05;;;;;;;14.30;9.27;;;;;;;;;;5032687;28;20253;-87
2022/03/03 11:29:37;;;;;;;12.70;9.47;;;;;;;;;;5033505;28;20199;-87
2022/03/03 11:32:06;;;;;;;12.50;8.67;;;;;;;;;;5033314;28;20259;-86
2022/03/03 11:34:44;;;;;;;13.03;8.47;;;;;;;;;;5033237;28;20207;-87
2022/03/03 11:37:17;;;;;;;12.50;8.90;;;;;;;;;;5033389;28;20242;-87
2022/03/03 11:39:46;;;;;;;13.30;9.13;;;;;;;;;;5033471;28;20202;-87
2022/03/03 11:42:18;;;;;;;10.33;8.07;;;;;;;;;;5032654;28;20734;-87
2022/03/03 11:44:45;;;;;;;11.67;8.87;;;;;;;;;;5033611;28;20217;-87
2022/03/03 11:47:19;;;;;;;13.47;9.23;;;;;;;;;;5032870;28;20733;-87
2022/03/03 11:50:02;;;;;;;11.17;8.30;;;;;;;;;;5034216;28;20241;-87
2022/03/03 11:52:29;;;;;;;11.00;7.90;;;;;;;;;;5032508;28;20256;-87
2022/03/03 11:55:00;;;;;;;9.80;7.63;;;;;;;;;;5034687;28;20218;-87
2022/03/03 11:57:28;;;;;;;13.20;8.27;;;;;;;;;;5036171;28;20272;-88
2022/03/03 12:00:00;;;;;;;11.37;8.07;;;;;;;;;;5035691;28;20669;-87
2022/03/03 12:02:30;;;;;;;12.10;7.97;;;;;;;;;;5033257;28;20211;-87
2022/03/03 12:05:12;;;;;;;9.47;7.67;;;;;;;;;;5030696;28;20202;-87
2022/03/03 12:07:40;;;;;;;9.60;7.50;;;;;;;;;;5020295;28;20226;-87
2022/03/03 12:10:20;;;;;;;11.10;8.33;;;;;;;;;;5031273;28;20214;-87
2022/03/03 12:12:47;;;;;;;11.17;7.23;;;;;;;;;;5012836;28;20679;-87
2022/03/03 12:15:20;;;;;;;9.27;7.03;;;;;;;;;;5031700;28;20230;-88
2022/03/03 12:17:48;;;;;;;9.30;6.57;;;;;;;;;;5032629;28;20284;-88
2022/03/03 12:20:37;;;;;;;8.33;7.03;;;;;;;;;;5032538;28;20240;-87
2022/03/03 12:23:11;;;;;;;9.33;6.77;;;;;;;;;;5032250;28;20584;-87
2022/03/03 12:26:04;;;;;;;8.97;7.03;;;;;;;;;;5032000;28;20237;-88
2022/03/03 12:28:40;;;;;;;8.80;6.73;;;;;;;;;;5013912;28;20281;-88
2022/03/03 12:31:24;;;;;;;8.70;6.77;;;;;;;;;;5032751;28;20292;-88
2022/03/03 12:33:59;;;;;;;9.00;6.47;;;;;;;;;;5032720;28;20318;-88
2022/03/03 12:36:26;;;;;;;8.37;6.40;;;;;;;;;;5033054;28;20222;-90
2022/03/03 12:38:54;;;;;;;10.77;7.13;;;;;;;;;;5034489;28;20215;-88
2022/03/03 12:41:22;;;;;;;8.17;6.30;;;;;;;;;;5034559;28;20238;-90
2022/03/03 12:43:50;;;;;;;8.33;6.40;;;;;;;;;;5043503;28;20218;-89
2022/03/03 12:46:17;;;;;;;8.73;6.30;;;;;;;;;;5039365;28;20253;-89
2022/03/03 12:48:46;;;;;;;9.17;6.40;;;;;;;;;;5036846;28;20206;-90
2022/03/03 12:51:14;;;;;;;7.43;6.30;;;;;;;;;;5034316;28;20242;-89
2022/03/03 12:53:43;;;;;;;9.83;6.97;;;;;;;;;;5038931;28;20290;-90
2022/03/03 12:56:10;;;;;;;8.90;6.70;;;;;;;;;;5036989;28;20261;-86
2022/03/03 12:58:38;;;;;;;8.30;5.80;;;;;;;;;;5043040;28;20856;-87
2022/03/03 13:01:06;;;;;;;8.17;6.40;;;;;;;;;;5036460;28;20245;-86
2022/03/03 13:03:33;;;;;;;8.10;5.77;;;;;;;;;;5036661;28;20203;-87
2022/03/03 13:06:03;;;;;;;8.20;6.57;;;;;;;;;;5036583;28;20238;-86
2022/03/03 13:08:31;;;;;;;8.83;6.53;;;;;;;;;;5036451;28;20240;-87
2022/03/03 13:10:58;;;;;;;7.83;6.50;;;;;;;;;;5036503;28;20610;-88
2022/03/03 13:13:26;;;;;;;6.80;6.07;;;;;;;;;;5036926;28;20214;-87
2022/03/03 13:15:53;;;;;;;11.97;8.70;;;;;;;;;;5035700;28;20716;-87
2022/03/03 13:18:23;;;;;;;7.60;6.07;;;;;;;;;;5036344;28;20242;-88
2022/03/03 13:20:54;;;;;;;7.07;6.37;;;;;;;;;;5037550;28;20285;-85
2022/03/03 13:23:22;;;;;;;7.30;5.53;;;;;;;;;;5035017;28;20748;-86
2022/03/03 13:26:03;;;;;;;6.68;5.50;;;;;;;;;;5034598;28;20242;-84
2022/03/03 13:28:30;;;;;;;6.60;5.90;;;;;;;;;;5036312;28;20234;-85
2022/03/03 13:31:02;;;;;;;9.00;6.25;;;;;;;;;;5034923;28;20239;-83
2022/03/03 13:33:42;;;;;;;9.73;6.32;;;;;;;;;;5034988;28;20655;-85
2022/03/03 13:36:13;;;;;;;7.70;6.10;;;;;;;;;;5034093;28;20734;-84
2022/03/03 13:38:40;;;;;;;7.50;5.55;;;;;;;;;;5034398;28;20737;-85
2022/03/03 13:41:20;;;;;;;6.80;5.75;;;;;;;;;;5034349;28;20235;-85
2022/03/03 13:43:48;;;;;;;7.07;5.97;;;;;;;;;;5034809;28;20191;-85
2022/03/03 13:46:28;;;;;;;10.52;6.28;;;;;;;;;;5034207;28;20238;-85
2022/03/03 13:48:56;;;;;;;7.03;5.90;;;;;;;;;;5034715;28;20536;-85
2022/03/03 13:51:24;;;;;;;6.72;5.90;;;;;;;;;;5033634;28;20292;-86
2022/03/03 13:53:57;;;;;;;7.30;6.20;;;;;;;;;;5033755;28;20199;-85
2022/03/03 13:56:27;;;;;;;9.50;6.18;;;;;;;;;;5033388;28;20594;-85
2022/03/03 13:59:04;;;;;;;7.50;5.93;;;;;;;;;;5034180;28;20222;-84
2022/03/03 14:01:33;;;;;;;8.35;6.32;;;;;;;;;;5033541;28;20273;-85
2022/03/03 14:04:11;;;;;;;8.18;5.50;;;;;;;;;;5033469;28;20195;-85
2022/03/03 14:06:42;;;;;;;7.63;5.50;;;;;;;;;;5033753;28;20245;-85
2022/03/03 14:09:09;;;;;;;5.13;4.63;;;;;;;;;;5034126;28;20214;-85
2022/03/03 14:11:36;;;;;;;7.43;5.30;;;;;;;;;;5033599;28;20235;-85
2022/03/03 14:14:04;;;;;;;6.80;4.78;;;;;;;;;;5034047;28;20210;-85
2022/03/03 14:16:32;;;;;;;6.85;5.22;;;;;;;;;;5033614;28;20234;-85
2022/03/03 14:19:00;;;;;;;6.65;5.25;;;;;;;;;;5034855;28;20213;-85
2022/03/03 14:21:28;;;;;;;5.93;4.32;;;;;;;;;;5033708;28;20710;-85
2022/03/03 14:23:56;;;;;;;5.57;4.63;;;;;;;;;;5033847;28;20210;-85
2022/03/03 14:26:23;;;;;;;5.78;4.85;;;;;;;;;;5033751;28;20303;-86
2022/03/03 14:28:51;;;;;;;7.72;5.53;;;;;;;;;;5034271;28;20215;-85
2022/03/03 14:31:18;;;;;;;5.72;5.07;;;;;;;;;;5033337;28;20718;-85
2022/03/03 14:33:46;;;;;;;6.57;4.65;;;;;;;;;;5033858;28;20214;-85